Time;durP1;ratioP1;P1;durP2;ratioP2;P2;SDS_P1;SDS_P2;PMS_P1;PMS_P2;Temp;Humidity;BMP_temperature;BMP_pressure;BME280_temperature;BME280_humidity;BME280_pressure;Samples;Min_cycle;Max_cycle;Signal;HPM_P1;HPM_P2
2023/03/27 00:02:00;;;;;;;40.23;20.97;;;6.40;99.90;;;;;;4435448;28;659299;-69
2023/03/27 00:04:47;;;;;;;37.30;21.23;;;6.40;99.90;;;;;;4409290;28;659496;-69
2023/03/27 00:07:34;;;;;;;38.80;20.20;;;6.40;99.90;;;;;;4438937;28;658657;-69
2023/03/27 00:10:22;;;;;;;36.23;19.63;;;6.50;99.90;;;;;;4407314;28;660290;-70
2023/03/27 00:13:09;;;;;;;35.17;18.50;;;6.50;99.90;;;;;;4437309;28;658027;-69
2023/03/27 00:15:58;;;;;;;34.97;17.93;;;6.50;99.90;;;;;;4413415;28;660173;-69
2023/03/27 00:18:45;;;;;;;29.50;16.50;;;6.50;99.90;;;;;;4415929;28;658722;-69
2023/03/27 00:21:33;;;;;;;28.23;15.07;;;6.50;99.90;;;;;;4435691;28;660099;-69
2023/03/27 00:24:21;;;;;;;22.63;11.90;;;6.50;99.90;;;;;;4425174;28;659142;-70
2023/03/27 00:27:08;;;;;;;21.23;11.83;;;6.40;99.90;;;;;;4432260;28;659149;-69
2023/03/27 00:29:56;;;;;;;21.80;11.40;;;6.40;99.90;;;;;;4418895;28;658670;-69
2023/03/27 00:32:45;;;;;;;21.33;12.63;;;6.40;99.90;;;;;;4441488;28;659731;-69
2023/03/27 00:35:32;;;;;;;22.07;12.23;;;6.40;99.90;;;;;;4415315;28;660488;-69
2023/03/27 00:38:19;;;;;;;21.93;12.10;;;6.40;99.90;;;;;;4432011;28;658279;-69
2023/03/27 00:41:07;;;;;;;21.87;11.50;;;6.50;99.90;;;;;;4415714;28;658455;-69
2023/03/27 00:43:55;;;;;;;20.07;11.43;;;6.60;99.90;;;;;;4429772;28;658575;-70
2023/03/27 00:46:43;;;;;;;25.07;10.87;;;6.60;99.90;;;;;;4413095;28;660215;-69
2023/03/27 00:49:32;;;;;;;19.83;10.77;;;6.60;99.90;;;;;;4421635;28;660013;-69
2023/03/27 00:52:20;;;;;;;17.23;9.90;;;6.60;99.90;;;;;;4430868;28;658669;-69
2023/03/27 00:55:09;;;;;;;24.73;11.40;;;6.50;99.90;;;;;;4438387;28;657777;-69
2023/03/27 00:57:59;;;;;;;19.73;12.30;;;6.60;99.90;;;;;;4416395;28;659028;-70
2023/03/27 01:00:48;;;;;;;21.07;11.10;;;6.60;99.90;;;;;;4405872;28;658880;-69
2023/03/27 01:03:35;;;;;;;20.77;9.75;;;6.60;99.90;;;;;;4418710;28;659059;-69
2023/03/27 01:06:24;;;;;;;19.80;11.00;;;6.50;99.90;;;;;;4436187;28;658424;-70
2023/03/27 01:09:11;;;;;;;18.87;10.90;;;6.40;99.90;;;;;;4417375;28;658900;-69
2023/03/27 01:12:09;;;;;;;22.60;9.80;;;6.40;99.90;;;;;;4434735;28;658801;-70
2023/03/27 01:15:04;;;;;;;16.23;9.47;;;6.50;99.90;;;;;;4388387;28;658155;-70
2023/03/27 01:17:57;;;;;;;17.93;9.10;;;6.50;99.90;;;;;;4416519;28;657666;-69
2023/03/27 01:21:32;;;;;;;12.87;6.63;;;6.40;99.90;;;;;;4411220;28;657794;-69
2023/03/27 01:25:02;;;;;;;11.17;6.77;;;6.30;99.90;;;;;;4413034;28;657375;-69
2023/03/27 01:28:13;;;;;;;14.43;6.97;;;6.30;99.90;;;;;;4415532;28;658411;-69
2023/03/27 01:31:05;;;;;;;13.40;7.67;;;6.30;99.90;;;;;;4386405;28;657603;-70
2023/03/27 01:34:08;;;;;;;13.10;7.67;;;6.40;99.90;;;;;;4413463;28;659123;-70
2023/03/27 01:37:06;;;;;;;19.50;9.87;;;6.40;99.90;;;;;;4389254;28;657969;-70
2023/03/27 01:39:55;;;;;;;14.47;7.90;;;6.40;99.90;;;;;;4413261;28;657561;-69
2023/03/27 01:42:45;;;;;;;13.33;7.30;;;6.40;99.90;;;;;;4415872;28;658662;-69
2023/03/27 01:45:35;;;;;;;12.07;6.93;;;6.40;99.90;;;;;;4417559;28;658161;-70
2023/03/27 01:48:25;;;;;;;12.93;6.60;;;6.40;99.90;;;;;;4419612;28;657476;-70
2023/03/27 01:51:15;;;;;;;13.20;7.53;;;6.40;99.90;;;;;;4418282;28;658853;-69
2023/03/27 01:54:04;;;;;;;11.00;6.40;;;6.40;99.90;;;;;;4410923;28;658931;-69
2023/03/27 01:56:55;;;;;;;12.97;7.27;;;6.30;99.90;;;;;;4419397;28;657772;-70
2023/03/27 01:59:44;;;;;;;16.83;6.57;;;6.20;99.90;;;;;;4415980;28;659474;-69
2023/03/27 02:02:32;;;;;;;13.83;6.20;;;6.20;99.90;;;;;;4417994;28;657479;-69
2023/03/27 02:05:22;;;;;;;12.60;6.50;;;6.20;99.90;;;;;;4443390;28;657836;-69
2023/03/27 02:08:11;;;;;;;11.63;6.13;;;6.20;99.90;;;;;;4411941;28;658326;-70
2023/03/27 02:10:59;;;;;;;13.80;6.40;;;6.10;99.90;;;;;;4410975;28;657545;-69
2023/03/27 02:13:49;;;;;;;10.43;5.80;;;6.10;99.90;;;;;;4417411;28;657824;-69
2023/03/27 02:16:40;;;;;;;9.00;5.10;;;6.10;99.90;;;;;;4420277;28;657913;-70
2023/03/27 02:19:32;;;;;;;9.97;5.73;;;6.10;99.90;;;;;;4406540;28;657623;-69
2023/03/27 02:22:19;;;;;;;10.77;5.60;;;6.20;99.90;;;;;;4417885;28;656733;-69
2023/03/27 02:25:24;;;;;;;14.40;6.50;;;6.20;99.90;;;;;;4415883;28;657113;-70
2023/03/27 02:28:32;;;;;;;13.57;6.73;;;6.30;99.90;;;;;;4414878;28;657920;-69
2023/03/27 02:31:40;;;;;;;12.40;6.33;;;6.20;99.90;;;;;;4405424;28;657933;-69
2023/03/27 02:34:39;;;;;;;16.80;6.43;;;6.20;99.90;;;;;;4392550;28;658082;-69
2023/03/27 02:37:28;;;;;;;14.00;6.30;;;6.20;99.90;;;;;;4408884;28;658361;-70
2023/03/27 02:40:23;;;;;;;19.37;7.43;;;6.10;99.90;;;;;;4413638;28;658405;-70
2023/03/27 02:43:13;;;;;;;12.43;6.53;;;6.20;99.90;;;;;;4389258;28;658003;-69
2023/03/27 02:46:02;;;;;;;12.77;7.20;;;6.20;99.90;;;;;;4432347;28;658283;-69
2023/03/27 02:48:52;;;;;;;14.17;6.70;;;6.10;99.90;;;;;;4442215;28;657306;-69
2023/03/27 02:51:41;;;;;;;15.97;6.77;;;6.20;99.90;;;;;;4411027;28;657287;-69
2023/03/27 02:54:31;;;;;;;13.10;7.27;;;6.20;99.90;;;;;;4415721;28;658137;-69
2023/03/27 02:57:19;;;;;;;12.63;6.97;;;6.20;99.90;;;;;;4411582;28;657867;-69
2023/03/27 03:00:24;;;;;;;12.07;6.80;;;6.20;99.90;;;;;;4408541;28;657717;-69
2023/03/27 03:03:13;;;;;;;14.90;7.40;;;6.20;99.90;;;;;;4418142;28;657561;-69
2023/03/27 03:06:05;;;;;;;16.75;7.82;;;6.20;99.90;;;;;;4418879;28;657833;-70
2023/03/27 03:09:00;;;;;;;13.07;7.53;;;6.20;99.90;;;;;;4404890;28;658605;-70
2023/03/27 03:11:48;;;;;;;17.23;7.37;;;6.20;99.90;;;;;;4411191;28;658257;-70
2023/03/27 03:14:37;;;;;;;15.10;8.50;;;6.20;99.90;;;;;;4418941;28;657244;-70
2023/03/27 03:17:25;;;;;;;15.63;8.00;;;6.20;99.90;;;;;;4434347;28;657780;-71
2023/03/27 03:20:13;;;;;;;14.83;7.67;;;6.30;99.90;;;;;;4436537;28;658050;-70
2023/03/27 03:23:02;;;;;;;16.33;8.13;;;6.20;99.90;;;;;;4419274;28;657711;-70
2023/03/27 03:25:51;;;;;;;12.63;7.47;;;6.20;99.90;;;;;;4438913;28;657437;-70
2023/03/27 03:28:38;;;;;;;14.77;7.40;;;6.20;99.90;;;;;;4411330;28;658163;-70
2023/03/27 03:31:26;;;;;;;15.03;8.10;;;6.20;99.90;;;;;;4417257;28;658197;-70
2023/03/27 03:34:14;;;;;;;17.23;7.40;;;6.20;99.90;;;;;;4435420;28;657582;-70
2023/03/27 03:37:02;;;;;;;19.03;7.37;;;6.20;99.90;;;;;;4414238;28;657576;-69
2023/03/27 03:39:50;;;;;;;14.40;6.83;;;6.30;99.90;;;;;;4429898;28;657936;-70
2023/03/27 03:42:43;;;;;;;12.90;7.03;;;6.30;99.90;;;;;;4414184;28;659728;-69
2023/03/27 03:45:30;;;;;;;11.77;6.83;;;6.20;99.90;;;;;;4384057;28;658048;-70
2023/03/27 03:48:18;;;;;;;13.57;7.03;;;6.20;99.90;;;;;;4439136;28;657533;-70
2023/03/27 03:51:06;;;;;;;15.53;6.60;;;6.20;99.90;;;;;;4416825;28;657928;-69
2023/03/27 03:53:53;;;;;;;12.47;6.67;;;6.20;99.90;;;;;;4440596;28;658430;-69
2023/03/27 03:56:42;;;;;;;9.77;6.03;;;6.10;99.90;;;;;;4411327;28;657555;-70
2023/03/27 03:59:29;;;;;;;14.47;6.70;;;6.00;99.90;;;;;;4444500;28;655982;-70
2023/03/27 04:02:26;;;;;;;9.90;6.67;;;6.10;99.90;;;;;;4409127;28;657982;-69
2023/03/27 04:05:14;;;;;;;11.47;6.93;;;6.10;99.90;;;;;;4414718;28;658193;-69
2023/03/27 04:08:01;;;;;;;13.30;7.47;;;6.10;99.90;;;;;;4411461;28;657647;-70
2023/03/27 04:10:48;;;;;;;12.90;7.20;;;6.20;99.90;;;;;;4431926;28;658462;-69
2023/03/27 04:13:37;;;;;;;11.47;6.77;;;6.20;99.90;;;;;;4416940;28;658169;-69
2023/03/27 04:16:24;;;;;;;13.95;6.57;;;6.20;99.90;;;;;;4425932;28;657744;-70
2023/03/27 04:19:11;;;;;;;13.30;7.03;;;6.10;99.90;;;;;;4417870;28;657539;-69
2023/03/27 04:22:01;;;;;;;14.07;8.27;;;6.10;99.90;;;;;;4438758;28;657391;-70
2023/03/27 04:24:49;;;;;;;14.23;7.53;;;6.20;99.90;;;;;;4419326;28;658373;-69
2023/03/27 04:27:36;;;;;;;17.10;7.80;;;6.20;99.90;;;;;;4415114;28;657745;-70
2023/03/27 04:30:26;;;;;;;12.07;6.20;;;6.30;99.90;;;;;;4435961;28;657853;-70
2023/03/27 04:33:17;;;;;;;12.65;6.35;;;6.30;99.90;;;;;;4416819;28;658651;-69
2023/03/27 04:36:05;;;;;;;10.37;5.80;;;6.20;99.90;;;;;;4417045;28;657879;-70
2023/03/27 04:38:53;;;;;;;11.33;5.23;;;6.10;99.90;;;;;;4412343;28;657929;-70
2023/03/27 04:41:44;;;;;;;9.00;5.47;;;6.00;99.90;;;;;;4426421;28;657932;-70
2023/03/27 04:44:33;;;;;;;10.27;5.27;;;6.10;99.90;;;;;;4414623;28;656233;-70
2023/03/27 04:47:22;;;;;;;8.40;5.47;;;6.00;99.90;;;;;;4414612;28;657365;-70
2023/03/27 04:50:10;;;;;;;9.53;5.73;;;6.00;99.90;;;;;;4437569;28;657134;-70
2023/03/27 04:53:00;;;;;;;13.37;6.47;;;6.00;99.90;;;;;;4419362;28;656913;-70
2023/03/27 04:55:49;;;;;;;9.47;5.67;;;5.90;99.90;;;;;;4417435;28;657952;-70
2023/03/27 04:58:39;;;;;;;11.23;5.90;;;6.00;99.90;;;;;;4419563;28;657544;-70
2023/03/27 05:01:27;;;;;;;17.37;7.00;;;6.00;99.90;;;;;;4415164;28;658118;-70
2023/03/27 05:04:16;;;;;;;12.77;6.73;;;6.00;99.90;;;;;;4435028;28;658085;-70
2023/03/27 05:07:03;;;;;;;15.53;7.90;;;6.00;99.90;;;;;;4410841;28;658091;-70
2023/03/27 05:09:50;;;;;;;17.50;7.87;;;6.10;99.90;;;;;;4418277;28;657844;-70
2023/03/27 05:12:43;;;;;;;13.90;7.47;;;6.10;99.90;;;;;;4436292;28;659555;-70
2023/03/27 05:15:32;;;;;;;16.97;8.97;;;6.10;99.90;;;;;;4404653;28;657887;-70
2023/03/27 05:18:20;;;;;;;17.07;8.97;;;6.10;99.90;;;;;;4443065;28;657631;-70
2023/03/27 05:21:09;;;;;;;22.27;9.20;;;6.10;99.90;;;;;;4408334;28;658312;-70
2023/03/27 05:23:56;;;;;;;15.67;9.10;;;6.10;99.90;;;;;;4416620;28;657678;-70
2023/03/27 05:26:44;;;;;;;13.23;8.47;;;6.10;99.90;;;;;;4438181;28;658925;-70
2023/03/27 05:29:31;;;;;;;16.10;9.17;;;6.20;99.90;;;;;;4416137;28;658183;-70
2023/03/27 05:32:18;;;;;;;18.23;10.00;;;6.30;99.90;;;;;;4437057;28;658265;-70
2023/03/27 05:35:06;;;;;;;18.90;11.10;;;6.30;99.90;;;;;;4420488;28;658173;-70
2023/03/27 05:37:56;;;;;;;21.27;11.80;;;6.40;99.90;;;;;;4438745;28;659376;-70
2023/03/27 05:40:43;;;;;;;21.23;11.73;;;6.40;99.90;;;;;;4413201;28;658376;-69
2023/03/27 05:43:31;;;;;;;23.90;12.93;;;6.40;99.90;;;;;;4418148;28;659127;-70
2023/03/27 05:46:18;;;;;;;28.93;14.57;;;6.40;99.90;;;;;;4441848;28;659440;-70
2023/03/27 05:49:05;;;;;;;30.37;14.73;;;6.40;99.90;;;;;;4420689;28;659139;-70
2023/03/27 05:51:52;;;;;;;29.60;15.03;;;6.40;99.90;;;;;;4443432;28;658642;-70
2023/03/27 05:54:41;;;;;;;28.27;15.43;;;6.40;99.90;;;;;;4440235;28;658026;-70
2023/03/27 05:57:28;;;;;;;31.87;16.37;;;6.40;99.90;;;;;;4410742;28;659318;-70
2023/03/27 06:00:22;;;;;;;35.47;16.70;;;6.40;99.90;;;;;;4416281;28;658385;-70
2023/03/27 06:03:10;;;;;;;30.37;16.73;;;6.50;99.90;;;;;;4417343;28;658931;-70
2023/03/27 06:05:58;;;;;;;30.60;16.10;;;6.60;99.90;;;;;;4414952;28;659213;-69
2023/03/27 06:08:46;;;;;;;49.67;21.30;;;6.60;99.90;;;;;;4421511;28;659667;-70
2023/03/27 06:11:34;;;;;;;39.97;17.80;;;6.70;99.90;;;;;;4432399;28;658904;-70
2023/03/27 06:14:22;;;;;;;46.97;20.37;;;6.80;99.90;;;;;;4414502;28;659139;-70
2023/03/27 06:17:09;;;;;;;38.23;18.33;;;6.80;99.90;;;;;;4434113;28;659425;-69
2023/03/27 06:19:57;;;;;;;120.23;33.40;;;6.90;99.90;;;;;;4420068;28;659272;-70
2023/03/27 06:22:45;;;;;;;41.27;18.03;;;6.90;99.90;;;;;;4434146;28;659946;-70
2023/03/27 06:25:33;;;;;;;32.73;16.23;;;6.90;99.90;;;;;;4418568;28;659278;-70
2023/03/27 06:28:22;;;;;;;26.40;14.00;;;6.90;99.90;;;;;;4412577;28;659463;-70
2023/03/27 06:31:09;;;;;;;25.13;14.40;;;7.00;99.90;;;;;;4441437;28;658490;-70
2023/03/27 06:33:56;;;;;;;29.57;13.70;;;7.00;99.90;;;;;;4413309;28;658639;-70
2023/03/27 06:36:44;;;;;;;25.33;13.53;;;6.90;99.90;;;;;;4436311;28;659543;-70
2023/03/27 06:39:31;;;;;;;24.77;12.83;;;6.80;99.90;;;;;;4414997;28;658339;-70
2023/03/27 06:42:18;;;;;;;24.37;13.70;;;6.90;99.90;;;;;;4433236;28;659207;-69
2023/03/27 06:45:09;;;;;;;27.17;14.40;;;6.90;99.90;;;;;;4406971;28;658809;-70
2023/03/27 06:47:57;;;;;;;24.27;14.37;;;6.90;99.90;;;;;;4415068;28;658743;-69
2023/03/27 06:50:45;;;;;;;33.70;15.80;;;6.80;99.90;;;;;;4431804;28;659153;-69
2023/03/27 06:53:32;;;;;;;30.77;16.10;;;6.80;99.90;;;;;;4404127;28;659895;-69
2023/03/27 06:56:19;;;;;;;79.60;33.50;;;6.80;99.90;;;;;;4434441;28;658427;-69
2023/03/27 06:59:07;;;;;;;25.97;14.80;;;6.80;99.90;;;;;;4406808;28;658402;-69
2023/03/27 07:01:57;;;;;;;26.40;14.20;;;6.70;99.90;;;;;;4443752;28;658797;-69
2023/03/27 07:04:44;;;;;;;51.03;23.73;;;6.80;99.90;;;;;;4437976;28;658582;-69
2023/03/27 07:07:31;;;;;;;37.90;17.27;;;6.70;99.90;;;;;;4420010;28;659128;-70
2023/03/27 07:10:19;;;;;;;28.27;15.37;;;6.70;99.90;;;;;;4435541;28;658221;-70
2023/03/27 07:13:06;;;;;;;32.77;16.17;;;6.70;99.90;;;;;;4407313;28;658857;-70
2023/03/27 07:15:53;;;;;;;36.67;20.17;;;6.80;99.90;;;;;;4435896;28;659747;-70
2023/03/27 07:18:42;;;;;;;39.00;20.03;;;6.80;99.90;;;;;;4419344;28;658609;-70
2023/03/27 07:21:29;;;;;;;32.20;17.03;;;6.70;99.90;;;;;;4439939;28;658273;-69
2023/03/27 07:24:17;;;;;;;45.33;22.17;;;6.60;99.90;;;;;;4412801;28;659465;-69
2023/03/27 07:27:04;;;;;;;36.93;19.00;;;6.60;99.90;;;;;;4430728;28;658921;-70
2023/03/27 07:29:51;;;;;;;29.27;17.13;;;6.60;99.90;;;;;;4413860;28;659639;-69
2023/03/27 07:32:39;;;;;;;31.00;17.03;;;6.60;99.90;;;;;;4437550;28;659579;-69
2023/03/27 07:35:28;;;;;;;31.80;16.83;;;6.50;99.90;;;;;;4407444;28;658667;-70
2023/03/27 07:38:17;;;;;;;31.42;17.15;;;6.50;99.90;;;;;;4410410;28;659245;-69
2023/03/27 07:41:06;;;;;;;25.13;14.50;;;6.50;99.90;;;;;;4435395;28;658508;-69
2023/03/27 07:43:53;;;;;;;26.67;15.70;;;6.50;99.90;;;;;;4413703;28;659647;-69
2023/03/27 07:46:40;;;;;;;25.38;14.00;;;6.60;99.90;;;;;;4417871;28;658459;-70
2023/03/27 07:49:28;;;;;;;28.13;14.90;;;6.50;99.90;;;;;;4439857;28;659706;-70
2023/03/27 07:52:17;;;;;;;25.97;13.93;;;6.60;99.90;;;;;;4435781;28;659272;-70
2023/03/27 07:55:05;;;;;;;29.07;15.30;;;6.60;99.90;;;;;;4434722;28;658889;-72
2023/03/27 07:57:53;;;;;;;23.43;13.13;;;6.60;99.90;;;;;;4407027;28;659586;-69
2023/03/27 08:00:42;;;;;;;29.60;15.80;;;6.60;99.90;;;;;;4415590;28;658621;-70
2023/03/27 08:03:29;;;;;;;27.97;14.20;;;6.70;99.90;;;;;;4445495;28;658096;-70
2023/03/27 08:06:16;;;;;;;23.53;13.93;;;6.70;99.90;;;;;;4418135;28;658587;-70
2023/03/27 08:09:05;;;;;;;24.23;13.73;;;6.70;99.90;;;;;;4437773;28;659867;-69
2023/03/27 08:11:53;;;;;;;34.63;18.17;;;6.70;99.90;;;;;;4402470;28;659693;-69
2023/03/27 08:14:40;;;;;;;21.77;12.37;;;6.80;99.90;;;;;;4425668;28;659059;-69
2023/03/27 08:17:27;;;;;;;22.17;12.00;;;6.80;99.90;;;;;;4440803;28;659320;-69
2023/03/27 08:20:16;;;;;;;21.57;11.50;;;6.80;99.90;;;;;;4428712;28;658486;-69
2023/03/27 08:23:04;;;;;;;23.67;13.23;;;6.80;99.90;;;;;;4438253;28;658839;-69
2023/03/27 08:25:52;;;;;;;22.37;11.80;;;6.90;99.90;;;;;;4418790;28;658506;-69
2023/03/27 08:28:40;;;;;;;17.40;10.00;;;6.90;99.90;;;;;;4425200;28;659042;-69
2023/03/27 08:31:29;;;;;;;16.67;10.57;;;6.90;99.90;;;;;;4435666;28;659902;-69
2023/03/27 08:34:17;;;;;;;16.83;9.67;;;6.90;99.90;;;;;;4418494;28;659949;-69
2023/03/27 08:37:04;;;;;;;16.23;9.47;;;6.80;99.90;;;;;;4439889;28;657382;-69
2023/03/27 08:39:57;;;;;;;14.93;9.27;;;6.80;99.90;;;;;;4414055;28;658027;-69
2023/03/27 08:42:46;;;;;;;16.00;8.97;;;6.70;99.90;;;;;;4418980;28;658190;-70
2023/03/27 08:45:37;;;;;;;14.73;8.70;;;6.70;99.90;;;;;;4407204;28;658160;-69
2023/03/27 08:48:26;;;;;;;17.23;9.23;;;6.60;99.90;;;;;;4411434;28;657661;-69
2023/03/27 08:51:16;;;;;;;16.00;9.03;;;6.50;99.90;;;;;;4410067;28;658117;-70
2023/03/27 08:54:06;;;;;;;19.80;11.03;;;6.50;99.90;;;;;;4410638;28;657878;-69
2023/03/27 08:56:53;;;;;;;18.57;10.13;;;6.40;99.90;;;;;;4410638;28;658903;-70
2023/03/27 08:59:42;;;;;;;14.97;8.60;;;6.40;99.90;;;;;;4417038;28;658543;-70
2023/03/27 09:02:35;;;;;;;16.60;9.00;;;6.30;99.90;;;;;;4440200;28;657671;-70
2023/03/27 09:05:23;;;;;;;16.37;9.83;;;6.20;99.90;;;;;;4392002;28;659013;-69
2023/03/27 09:08:16;;;;;;;18.10;10.63;;;6.20;99.90;;;;;;4404024;28;658499;-69
2023/03/27 09:11:05;;;;;;;18.50;11.20;;;6.20;99.90;;;;;;4400362;28;659588;-70
2023/03/27 09:13:52;;;;;;;18.65;11.25;;;6.20;99.90;;;;;;4410317;28;658950;-70
2023/03/27 09:16:47;;;;;;;25.30;10.60;;;6.40;99.90;;;;;;4437643;28;658304;-70
2023/03/27 09:19:37;;;;;;;17.90;10.50;;;6.40;99.90;;;;;;4406493;28;658572;-70
2023/03/27 09:22:26;;;;;;;16.87;9.17;;;6.40;99.90;;;;;;4420334;28;658605;-70
2023/03/27 09:25:26;;;;;;;18.67;11.73;;;6.20;99.90;;;;;;4418459;28;658055;-70
2023/03/27 09:28:17;;;;;;;19.63;11.13;;;6.10;99.90;;;;;;4412025;28;658894;-70
2023/03/27 09:31:19;;;;;;;19.87;13.00;;;5.90;99.90;;;;;;4405660;28;659363;-70
2023/03/27 09:34:10;;;;;;;23.23;12.77;;;6.00;99.90;;;;;;4420005;28;659558;-69
2023/03/27 09:36:57;;;;;;;23.87;13.60;;;5.90;99.90;;;;;;4419024;28;658606;-69
2023/03/27 09:39:46;;;;;;;25.10;14.57;;;5.90;99.90;;;;;;4436612;28;658375;-69
2023/03/27 09:42:36;;;;;;;33.23;19.40;;;5.80;99.90;;;;;;4413361;28;659467;-70
2023/03/27 09:45:23;;;;;;;28.10;15.13;;;5.60;99.90;;;;;;4413919;28;659716;-70
2023/03/27 09:48:13;;;;;;;32.93;18.73;;;5.70;99.90;;;;;;4407960;28;658800;-70
2023/03/27 09:51:04;;;;;;;42.83;22.00;;;5.60;99.90;;;;;;4411390;28;658559;-70
2023/03/27 09:53:57;;;;;;;44.10;22.23;;;5.50;99.90;;;;;;4414929;28;658884;-69
2023/03/27 09:56:46;;;;;;;33.33;16.83;;;5.60;99.90;;;;;;4415722;28;659048;-70
2023/03/27 09:59:36;;;;;;;36.40;20.43;;;5.60;99.90;;;;;;4407935;28;658793;-69
2023/03/27 10:02:24;;;;;;;45.63;25.07;;;5.40;99.90;;;;;;4406780;28;659976;-70
2023/03/27 10:05:16;;;;;;;43.13;20.93;;;5.30;99.90;;;;;;4411435;28;659066;-70
2023/03/27 10:08:19;;;;;;;46.87;23.73;;;5.10;99.90;;;;;;4411325;28;659393;-69
2023/03/27 10:11:07;;;;;;;40.13;20.43;;;4.60;99.90;;;;;;4393283;28;659536;-69
2023/03/27 10:13:55;;;;;;;37.17;18.67;;;4.60;99.90;;;;;;4432032;28;659394;-69
2023/03/27 10:16:44;;;;;;;43.27;22.40;;;4.60;99.90;;;;;;4442358;28;659270;-70
2023/03/27 10:19:34;;;;;;;41.63;21.50;;;4.40;99.90;;;;;;4403852;28;658610;-70
2023/03/27 10:22:27;;;;;;;44.22;23.23;;;4.20;99.90;;;;;;4407711;28;658695;-72
2023/03/27 10:25:18;;;;;;;38.50;20.33;;;4.00;99.90;;;;;;4414101;28;658660;-71
2023/03/27 10:28:13;;;;;;;39.53;17.13;;;4.00;99.90;;;;;;4388230;28;659055;-71
2023/03/27 10:31:01;;;;;;;45.57;22.07;;;3.90;99.90;;;;;;4401039;28;658933;-69
2023/03/27 10:33:48;;;;;;;45.47;23.10;;;3.90;99.90;;;;;;4434822;28;659549;-69
2023/03/27 10:36:36;;;;;;;42.93;20.07;;;3.90;99.90;;;;;;4414610;28;658601;-68
2023/03/27 10:39:26;;;;;;;40.63;22.20;;;3.60;99.90;;;;;;4431094;28;658458;-68
2023/03/27 10:42:15;;;;;;;38.73;19.93;;;3.50;99.90;;;;;;4415143;28;659388;-68
2023/03/27 10:45:03;;;;;;;45.67;23.23;;;3.40;99.90;;;;;;4415419;28;658228;-69
2023/03/27 10:47:52;;;;;;;48.87;22.67;;;3.30;99.90;;;;;;4429610;28;659396;-70
2023/03/27 10:50:41;;;;;;;36.77;18.30;;;3.30;99.90;;;;;;4437444;28;658567;-69
2023/03/27 10:53:32;;;;;;;44.87;23.00;;;3.40;99.90;;;;;;4415721;28;658972;-69
2023/03/27 10:56:22;;;;;;;49.93;21.07;;;3.30;99.90;;;;;;4409461;28;658852;-69
2023/03/27 10:59:15;;;;;;;43.03;21.27;;;3.30;99.90;;;;;;4411227;28;658766;-69
2023/03/27 11:02:04;;;;;;;34.17;17.47;;;3.30;99.90;;;;;;4391349;28;659205;-69
2023/03/27 11:04:53;;;;;;;41.47;20.87;;;3.10;99.90;;;;;;4417971;28;659058;-68
2023/03/27 11:07:42;;;;;;;46.63;20.20;;;3.00;99.90;;;;;;4422197;28;658559;-69
2023/03/27 11:10:31;;;;;;;36.90;17.60;;;3.00;99.90;;;;;;4434148;28;659440;-69
2023/03/27 11:13:21;;;;;;;36.80;16.23;;;2.90;99.90;;;;;;4415321;28;659569;-70
2023/03/27 11:16:13;;;;;;;28.73;13.68;;;2.90;99.90;;;;;;4403643;28;658825;-69
2023/03/27 11:19:16;;;;;;;31.43;14.17;;;2.90;99.90;;;;;;4387191;28;659535;-69
2023/03/27 11:22:04;;;;;;;24.63;12.00;;;2.80;99.90;;;;;;4415946;28;658655;-68
2023/03/27 11:24:53;;;;;;;28.53;13.67;;;2.70;99.90;;;;;;4407196;28;658755;-68
2023/03/27 11:27:42;;;;;;;27.70;12.57;;;2.60;99.90;;;;;;4407727;28;658858;-69
2023/03/27 11:30:35;;;;;;;24.57;11.57;;;2.70;99.90;;;;;;4430139;28;658408;-69
2023/03/27 11:33:37;;;;;;;19.77;8.57;;;2.50;99.90;;;;;;4416435;28;658764;-68
2023/03/27 11:36:33;;;;;;;13.83;7.83;;;2.60;99.90;;;;;;4413719;28;657400;-67
2023/03/27 11:39:23;;;;;;;21.17;11.07;;;2.40;99.90;;;;;;4429410;28;658199;-68
2023/03/27 11:42:13;;;;;;;23.23;10.87;;;2.20;99.90;;;;;;4418510;28;658638;-67
2023/03/27 11:45:05;;;;;;;24.70;10.43;;;2.20;99.90;;;;;;4408551;28;658463;-68
2023/03/27 11:47:58;;;;;;;14.37;8.87;;;2.40;99.90;;;;;;4421719;28;660556;-67
2023/03/27 11:50:48;;;;;;;13.47;7.67;;;2.40;99.90;;;;;;4395100;28;657634;-69
2023/03/27 11:53:47;;;;;;;19.25;9.80;;;2.40;99.90;;;;;;4426353;28;657994;-68
2023/03/27 11:56:39;;;;;;;15.43;7.95;;;2.30;99.90;;;;;;4406813;28;658322;-68
2023/03/27 11:59:33;;;;;;;16.50;8.50;;;2.40;99.90;;;;;;4413992;28;657987;-68
2023/03/27 12:02:37;;;;;;;15.00;8.17;;;2.40;99.90;;;;;;4398828;28;657673;-68
2023/03/27 12:05:30;;;;;;;15.17;7.03;;;2.40;99.90;;;;;;4415534;28;658571;-68
2023/03/27 12:08:23;;;;;;;16.80;6.97;;;2.50;99.90;;;;;;4418006;28;657801;-68
2023/03/27 12:11:11;;;;;;;11.77;5.90;;;2.50;99.90;;;;;;4414049;28;658570;-69
2023/03/27 12:14:05;;;;;;;9.70;5.83;;;2.40;99.90;;;;;;4432854;28;658415;-69
2023/03/27 12:17:13;;;;;;;10.77;6.03;;;2.50;99.90;;;;;;4404632;28;656950;-68
2023/03/27 12:20:30;;;;;;;14.57;5.73;;;2.40;99.90;;;;;;4390745;28;657698;-68
2023/03/27 12:23:42;;;;;;;10.10;3.63;;;2.30;99.90;;;;;;4415516;28;657305;-68
2023/03/27 12:26:50;;;;;;;9.40;4.70;;;2.30;99.90;;;;;;4409967;28;657678;-68
2023/03/27 12:29:48;;;;;;;7.33;4.37;;;2.10;99.90;;;;;;4363068;28;657009;-68
2023/03/27 12:33:03;;;;;;;7.43;4.10;;;2.00;99.90;;;;;;4416358;28;656819;-68
2023/03/27 12:35:51;;;;;;;9.30;5.00;;;2.00;99.90;;;;;;4394183;28;656819;-68
2023/03/27 12:38:39;;;;;;;7.07;4.82;;;2.00;99.90;;;;;;4438603;28;658180;-69
2023/03/27 12:41:30;;;;;;;6.17;3.57;;;2.00;99.90;;;;;;4413993;28;656375;-68
2023/03/27 12:44:18;;;;;;;7.30;4.50;;;2.00;99.90;;;;;;4413519;28;657280;-68
2023/03/27 12:47:14;;;;;;;8.83;4.30;;;2.10;99.90;;;;;;4415157;28;656756;-69
2023/03/27 12:50:01;;;;;;;9.77;4.70;;;2.10;99.90;;;;;;4412101;28;656431;-68
2023/03/27 12:52:48;;;;;;;7.50;3.80;;;2.20;99.90;;;;;;4438868;28;656943;-67
2023/03/27 12:55:36;;;;;;;7.20;3.97;;;2.20;99.90;;;;;;4406588;28;656430;-68
2023/03/27 12:58:33;;;;;;;6.70;4.27;;;2.00;99.90;;;;;;4434192;28;658520;-68
2023/03/27 13:01:27;;;;;;;9.95;4.25;;;2.10;99.90;;;;;;4391028;28;656605;-68
2023/03/27 13:04:26;;;;;;;6.33;2.50;;;2.20;99.90;;;;;;4410260;28;656329;-67
2023/03/27 13:07:16;;;;;;;6.50;3.90;;;2.20;99.90;;;;;;4412378;28;656893;-68
2023/03/27 13:10:13;;;;;;;6.00;3.57;;;2.20;99.90;;;;;;4415352;28;657219;-68
2023/03/27 13:13:56;;;;;;;3.90;2.50;;;2.20;99.90;;;;;;4410132;28;656342;-68
2023/03/27 13:16:52;;;;;;;6.87;4.17;;;2.20;99.90;;;;;;4418966;28;656708;-68
2023/03/27 13:19:49;;;;;;;7.30;4.10;;;2.30;99.90;;;;;;4414499;28;657433;-67
2023/03/27 13:22:55;;;;;;;6.60;4.03;;;2.30;99.90;;;;;;4418817;28;656405;-69
2023/03/27 13:25:59;;;;;;;7.07;3.97;;;2.30;99.90;;;;;;4415079;28;656854;-68
2023/03/27 13:28:47;;;;;;;5.37;3.40;;;2.30;99.90;;;;;;4392483;28;657983;-68
2023/03/27 13:31:58;;;;;;;6.73;3.87;;;2.20;99.90;;;;;;4427698;28;656398;-68
2023/03/27 13:35:00;;;;;;;6.85;4.05;;;2.20;99.90;;;;;;4424052;28;656337;-68
2023/03/27 13:37:56;;;;;;;6.77;4.23;;;2.20;99.90;;;;;;4414592;28;656637;-68
2023/03/27 13:40:44;;;;;;;8.27;4.40;;;2.30;99.90;;;;;;4423349;28;656739;-68
2023/03/27 13:43:32;;;;;;;7.23;4.03;;;2.20;99.90;;;;;;4423386;28;657359;-68
2023/03/27 13:46:23;;;;;;;6.33;4.27;;;2.30;99.90;;;;;;4446773;28;656707;-67
2023/03/27 13:49:21;;;;;;;8.33;4.70;;;2.10;99.90;;;;;;4401750;28;656862;-68
2023/03/27 13:52:30;;;;;;;6.93;3.60;;;2.10;99.90;;;;;;4420846;28;656851;-69
2023/03/27 13:55:33;;;;;;;7.60;4.67;;;2.10;99.90;;;;;;4423141;28;656353;-67
2023/03/27 13:58:29;;;;;;;5.90;3.83;;;2.00;99.90;;;;;;4399572;28;656400;-68
2023/03/27 14:01:26;;;;;;;9.23;4.90;;;2.00;99.90;;;;;;4396490;28;657399;-68
2023/03/27 14:04:48;;;;;;;6.67;4.13;;;2.10;99.90;;;;;;4409196;28;656808;-67
2023/03/27 14:07:58;;;;;;;8.17;3.80;;;2.00;99.90;;;;;;4391468;28;656665;-68
2023/03/27 14:11:16;;;;;;;5.80;3.90;;;2.00;99.90;;;;;;4419116;28;656335;-68
2023/03/27 14:14:18;;;;;;;6.67;3.53;;;2.20;99.90;;;;;;4413031;28;657621;-67
2023/03/27 14:17:21;;;;;;;8.60;3.80;;;2.20;99.90;;;;;;4404677;28;657003;-68
2023/03/27 14:20:31;;;;;;;6.33;3.13;;;2.20;99.90;;;;;;4418456;28;657405;-68
2023/03/27 14:23:20;;;;;;;5.10;3.07;;;2.10;99.90;;;;;;4407742;28;656748;-67
2023/03/27 14:26:10;;;;;;;5.73;3.20;;;2.20;99.90;;;;;;4414703;28;657176;-68
2023/03/27 14:28:59;;;;;;;6.05;3.17;;;2.10;99.90;;;;;;4424186;28;656070;-68
2023/03/27 14:31:46;;;;;;;5.30;2.77;;;2.10;99.90;;;;;;4424024;28;657417;-67
2023/03/27 14:34:34;;;;;;;4.77;2.27;;;2.10;99.90;;;;;;4441566;28;656672;-68
2023/03/27 14:37:30;;;;;;;6.03;3.33;;;2.10;99.90;;;;;;4419277;28;656531;-68